Willimantic, CT

11:01 AM EST on December 29, 2014 (GMT -0500)
Lewiston Acres | Change Station
CLOSE
Current Station
Personal Weather Station
Location: Willimantic, CT
Elevation: 384 ft
Nearby Weather Stations

Elev 384 ft 41.72 °N, 72.21 °W | Updated 11 minutes ago

Clear
Clear
44.2 °F
Feels Like 43 °F
N
3.2
Wind Variable Wind from NNW

Today
High -- | Low -- °F
--% Chance of Precip.
Yesterday
High -- | Low -- °F
Precip. -- in
7:15 AM 4:26 PM
First Quarter, 60% visible
Pressure 30.15 in
Visibility 10.0 miles
Clouds Clear
Windchill 43 °F
Dew Point 21 °F
Humidity 40%
Rainfall 0.08 in
Snow Depth Not available.
UV 2 out of 12
Pollen .10 out of 12
Air Quality Not available.
Flu Activity Not available.
METAR KIJD 291552Z AUTO 30008KT 10SM CLR 04/M06 A3014 RMK AO2 SLP208 T00391061

More Conditions Fewer Conditions

Pressure 30.15 in
Visibility 10.0 miles
Clouds Clear
Windchill 43 °F
Dew Point 21 °F
Humidity 40%
Rainfall 0.08 in
Snow Depth Not available.
UV 2 out of 12
Pollen .10 out of 12
Air Quality Not available.
Flu Activity Not available.
METAR KIJD 291552Z AUTO 30008KT 10SM CLR 04/M06 A3014 RMK AO2 SLP208 T00391061

More Conditions Fewer Conditions

10-Day Weather Forecast

Almanac

Astronomy

Dec. 29, 2014 Rise Set
Actual Time
Civil Twilight
Nautical Twilight
Astronomical Twilight
Moon
Length of Visible Light
Length of Day
Tomorrow will be .
, % of the Moon is Illuminated

Today's Extremes

State Highs State Lows

Community

WunderPhotos

Upload Photos

1,781,625 photos uploaded!

WunderBlogs® & News

Nearby

Air Quality

  Air Quality AQ Index Pollutant
Not available.

Snow Depth

Station Depth Elevation

Earthquake Activity

City Distance Mag. Time & Date
Minimum magnitude displayed is 2.5.

Coastal Water Temperatures

Place Temperature

Nearby Weather Stations